Terminal Aerodrome Forecast
Issued by NWS

Home | Current Version | Previous Version | Graphics & Text | Print | Product List | Glossary On
Versions: 1 2 3 4 5 6 7 8 9 10 11 12 13 14 15 16
921
FTUS43 KGRB 290522
TAFAUW
TAF
KAUW 290522Z 2906/3006 00000KT P6SM VCSH SCT025 OVC040
     FM291000 01003KT P6SM SCT025 OVC050
     FM291400 06005KT P6SM BKN050
     FM292000 08006KT P6SM SCT050 BKN120
     FM300000 08004KT P6SM SCT120 SCT250=

USA.gov is the U.S. government's official web portal to all federal, state and local government web resources and services.